createdAt,value
2018-06-29T00:00:33.319Z,18.60
2018-06-29T00:01:33.199Z,18.57
2018-06-29T00:02:33.192Z,18.55
2018-06-29T00:03:33.220Z,18.52
2018-06-29T00:04:33.230Z,18.58
2018-06-29T00:05:33.355Z,18.58
2018-06-29T00:06:33.261Z,18.58
2018-06-29T00:07:33.265Z,18.71
2018-06-29T00:08:33.295Z,18.58
2018-06-29T00:09:33.294Z,18.61
2018-06-29T00:10:33.475Z,18.61
2018-06-29T00:11:33.341Z,18.60
2018-06-29T00:12:33.350Z,18.55
2018-06-29T00:13:33.344Z,18.58
2018-06-29T00:14:33.376Z,18.64
2018-06-29T00:15:33.522Z,18.58
2018-06-29T00:16:33.495Z,18.70
2018-06-29T00:17:33.413Z,18.63
2018-06-29T00:18:33.417Z,18.61
2018-06-29T00:19:33.430Z,18.58
2018-06-29T00:20:33.596Z,18.57
2018-06-29T00:21:33.478Z,18.61
2018-06-29T00:22:33.473Z,18.57
2018-06-29T00:23:33.505Z,18.58
2018-06-29T00:24:33.579Z,18.60
2018-06-29T00:25:33.614Z,18.63
2018-06-29T00:26:33.536Z,18.51
2018-06-29T00:27:33.545Z,18.46
2018-06-29T00:28:33.588Z,18.46
2018-06-29T00:29:33.594Z,18.37
2018-06-29T00:30:33.732Z,18.27
2018-06-29T00:31:33.611Z,18.19
2018-06-29T00:32:33.624Z,18.21
2018-06-29T00:33:33.631Z,18.11
2018-06-29T00:34:33.643Z,18.03
2018-06-29T00:35:33.659Z,18.09
2018-06-29T00:36:33.835Z,17.98
2018-06-29T00:37:33.686Z,18.05
2018-06-29T00:38:33.721Z,17.90
2018-06-29T00:39:33.729Z,17.90
2018-06-29T00:40:33.738Z,17.88
2018-06-29T00:41:33.907Z,17.82
2018-06-29T00:42:33.771Z,17.76
2018-06-29T00:43:33.764Z,17.79
2018-06-29T00:44:33.793Z,17.86
2018-06-29T00:45:33.799Z,17.73
2018-06-29T00:46:33.976Z,17.72
2018-06-29T00:47:33.848Z,17.79
2018-06-29T00:48:33.839Z,17.84
2018-06-29T00:49:33.868Z,17.79
2018-06-29T00:50:33.866Z,17.75
2018-06-29T00:51:34.001Z,17.78
2018-06-29T00:52:33.998Z,17.79
2018-06-29T00:53:33.929Z,17.69
2018-06-29T00:54:33.955Z,17.66
2018-06-29T00:55:33.946Z,17.60
2018-06-29T00:56:33.959Z,17.53
2018-06-29T00:57:34.071Z,17.54
2018-06-29T00:58:33.973Z,17.56
2018-06-29T00:59:33.993Z,17.38
2018-06-29T01:00:34.005Z,17.44
2018-06-29T01:01:34.035Z,17.38
2018-06-29T01:02:34.147Z,17.32
2018-06-29T01:03:34.046Z,17.32
2018-06-29T01:04:34.060Z,17.32
2018-06-29T01:05:34.094Z,17.30
2018-06-29T01:06:34.109Z,17.19
2018-06-29T01:07:34.208Z,17.13
2018-06-29T01:08:34.117Z,17.23
2018-06-29T01:09:34.129Z,17.12
2018-06-29T01:10:34.136Z,17.10
2018-06-29T01:11:34.182Z,17.01
2018-06-29T01:12:34.162Z,17.01
2018-06-29T01:13:34.299Z,17.02
2018-06-29T01:14:34.214Z,17.05
2018-06-29T01:15:34.341Z,16.97
2018-06-29T01:16:34.219Z,16.94
2018-06-29T01:17:34.253Z,16.91
2018-06-29T01:18:34.420Z,16.91
2018-06-29T01:19:34.262Z,16.94
2018-06-29T01:20:34.292Z,16.84
2018-06-29T01:21:34.307Z,16.97
2018-06-29T01:22:34.309Z,16.91
2018-06-29T01:23:34.381Z,16.92
2018-06-29T01:24:34.340Z,17.01
2018-06-29T01:25:34.360Z,16.98
2018-06-29T01:26:34.521Z,17.05
2018-06-29T01:27:34.387Z,17.02
2018-06-29T01:28:34.456Z,17.02
2018-06-29T01:29:34.406Z,17.02
2018-06-29T01:30:34.431Z,16.97
2018-06-29T01:31:34.524Z,16.97
2018-06-29T01:32:34.438Z,16.95
2018-06-29T01:33:34.446Z,17.01
2018-06-29T01:34:34.471Z,16.98
2018-06-29T01:35:34.486Z,16.98
2018-06-29T01:36:34.561Z,16.97
2018-06-29T01:37:34.507Z,16.99
2018-06-29T01:38:34.518Z,16.92
2018-06-29T01:39:34.545Z,17.02
2018-06-29T01:40:34.558Z,17.01
2018-06-29T01:41:34.622Z,16.98
2018-06-29T01:42:34.567Z,17.05
2018-06-29T01:43:34.699Z,17.10
2018-06-29T01:44:34.606Z,17.13
2018-06-29T01:45:34.621Z,17.22
2018-06-29T01:46:34.628Z,17.24
2018-06-29T01:47:34.635Z,17.13
2018-06-29T01:48:34.809Z,17.19
2018-06-29T01:49:34.666Z,17.19
2018-06-29T01:50:34.678Z,17.17
2018-06-29T01:51:34.697Z,17.19
2018-06-29T01:52:34.780Z,17.17
2018-06-29T01:53:34.819Z,17.10
2018-06-29T01:54:34.736Z,17.09
2018-06-29T01:55:34.744Z,17.12
2018-06-29T01:56:34.758Z,17.12
2018-06-29T01:57:34.768Z,17.20
2018-06-29T01:58:34.933Z,17.14
2018-06-29T01:59:34.806Z,17.20
2018-06-29T02:00:34.808Z,17.27
2018-06-29T02:01:34.838Z,17.28
2018-06-29T02:02:34.840Z,17.19
2018-06-29T02:03:35.006Z,17.13
2018-06-29T02:04:34.866Z,17.16
2018-06-29T02:05:34.884Z,17.19
2018-06-29T02:06:34.905Z,17.22
2018-06-29T02:07:34.907Z,17.28
2018-06-29T02:08:34.921Z,17.23
2018-06-29T02:09:35.000Z,17.39
2018-06-29T02:10:34.970Z,17.22
2018-06-29T02:11:34.967Z,17.24
2018-06-29T02:12:34.998Z,17.19
2018-06-29T02:13:34.974Z,17.16
2018-06-29T02:14:35.164Z,17.14
2018-06-29T02:15:35.028Z,17.19
2018-06-29T02:16:35.034Z,17.19
2018-06-29T02:17:35.050Z,17.19
2018-06-29T02:18:35.055Z,17.17
2018-06-29T02:19:35.167Z,17.16
2018-06-29T02:20:35.071Z,17.23
2018-06-29T02:21:35.091Z,17.19
2018-06-29T02:22:35.115Z,17.12
2018-06-29T02:23:35.103Z,17.27
2018-06-29T02:24:35.219Z,17.14
2018-06-29T02:25:35.266Z,17.16
2018-06-29T02:26:35.159Z,17.05
2018-06-29T02:27:35.218Z,17.16
2018-06-29T02:28:35.182Z,17.04
2018-06-29T02:29:35.190Z,17.01
2018-06-29T02:30:35.389Z,16.99
2018-06-29T02:31:35.225Z,17.04
2018-06-29T02:32:35.224Z,17.05
2018-06-29T02:33:35.242Z,17.01
2018-06-29T02:34:35.251Z,17.05
2018-06-29T02:35:35.370Z,17.10
2018-06-29T02:36:35.291Z,16.97
2018-06-29T02:37:35.289Z,17.04
2018-06-29T02:38:35.318Z,16.98
2018-06-29T02:39:35.325Z,16.86
2018-06-29T02:40:35.449Z,16.94
2018-06-29T02:41:35.345Z,16.86
2018-06-29T02:42:35.369Z,16.92
2018-06-29T02:43:35.399Z,16.91
2018-06-29T02:44:35.387Z,17.04
2018-06-29T02:45:35.499Z,16.92
2018-06-29T02:46:35.423Z,16.84
2018-06-29T02:47:35.436Z,16.83
2018-06-29T02:48:35.430Z,16.91
2018-06-29T02:49:35.468Z,16.89
2018-06-29T02:50:35.630Z,17.07
2018-06-29T02:51:35.495Z,16.87
2018-06-29T02:52:35.616Z,16.89
2018-06-29T02:53:35.527Z,16.99
2018-06-29T02:54:35.518Z,16.97
2018-06-29T02:55:35.634Z,16.86
2018-06-29T02:56:35.535Z,16.94
2018-06-29T02:57:35.561Z,16.94
2018-06-29T02:58:35.583Z,16.91
2018-06-29T02:59:35.587Z,16.86
2018-06-29T03:00:35.662Z,16.87
2018-06-29T03:01:35.609Z,16.89
2018-06-29T03:02:35.769Z,16.87
2018-06-29T03:03:35.635Z,16.91
2018-06-29T03:04:35.645Z,16.91
2018-06-29T03:05:35.675Z,16.84
2018-06-29T03:06:35.666Z,16.77
2018-06-29T03:07:35.795Z,16.73
2018-06-29T03:08:35.693Z,16.76
2018-06-29T03:09:35.712Z,16.76
2018-06-29T03:10:35.738Z,16.69
2018-06-29T03:11:35.727Z,16.66
2018-06-29T03:12:35.753Z,16.68
2018-06-29T03:13:35.870Z,16.65
2018-06-29T03:14:35.770Z,16.65
2018-06-29T03:15:35.911Z,16.72
2018-06-29T03:16:35.812Z,16.66
2018-06-29T03:17:35.811Z,16.65
2018-06-29T03:18:35.987Z,16.65
2018-06-29T03:19:35.837Z,16.69
2018-06-29T03:20:35.846Z,16.64
2018-06-29T03:21:35.854Z,16.72
2018-06-29T03:22:35.872Z,16.64
2018-06-29T03:23:35.998Z,16.62
2018-06-29T03:24:35.899Z,16.54
2018-06-29T03:25:35.928Z,16.51
2018-06-29T03:26:35.930Z,16.57
2018-06-29T03:27:35.956Z,16.58
2018-06-29T03:28:36.066Z,16.62
2018-06-29T03:29:35.973Z,16.49
2018-06-29T03:30:35.974Z,16.65
2018-06-29T03:31:35.984Z,16.58
2018-06-29T03:32:35.998Z,16.61
2018-06-29T03:33:36.140Z,16.47
2018-06-29T03:34:36.185Z,16.54
2018-06-29T03:35:36.047Z,16.44
2018-06-29T03:36:36.050Z,16.37
2018-06-29T03:37:36.083Z,16.37
2018-06-29T03:38:36.087Z,16.31
2018-06-29T03:39:36.200Z,16.18
2018-06-29T03:40:36.158Z,16.25
2018-06-29T03:41:36.122Z,16.21
2018-06-29T03:42:36.140Z,16.12
2018-06-29T03:43:36.153Z,16.12
2018-06-29T03:44:36.207Z,16.12
2018-06-29T03:45:36.342Z,16.09
2018-06-29T03:46:36.189Z,16.09
2018-06-29T03:47:36.196Z,16.08
2018-06-29T03:48:36.348Z,16.00
2018-06-29T03:49:36.235Z,15.91
2018-06-29T03:50:36.233Z,15.90
2018-06-29T03:51:36.256Z,15.85
2018-06-29T03:52:36.252Z,15.83
2018-06-29T03:53:36.431Z,15.80
2018-06-29T03:54:36.290Z,15.75
2018-06-29T03:55:36.288Z,15.81
2018-06-29T03:56:36.319Z,15.78
2018-06-29T03:57:36.320Z,15.85
2018-06-29T03:58:36.496Z,15.72
2018-06-29T03:59:36.356Z,15.67
2018-06-29T04:00:36.361Z,15.75
2018-06-29T04:01:36.381Z,15.72
2018-06-29T04:02:36.385Z,15.72
2018-06-29T04:03:36.542Z,15.76
2018-06-29T04:04:36.413Z,15.83
2018-06-29T04:05:36.431Z,15.80
2018-06-29T04:06:36.443Z,15.80
2018-06-29T04:07:36.440Z,15.90
2018-06-29T04:08:36.618Z,15.84
2018-06-29T04:09:36.472Z,15.88
2018-06-29T04:10:36.472Z,15.80
2018-06-29T04:11:36.496Z,15.83
2018-06-29T04:12:36.523Z,15.83
2018-06-29T04:13:36.796Z,15.88
2018-06-29T04:14:36.539Z,15.92
2018-06-29T04:15:36.550Z,15.91
2018-06-29T04:16:36.552Z,15.90
2018-06-29T04:17:36.582Z,15.83
2018-06-29T04:18:36.674Z,15.90
2018-06-29T04:19:36.593Z,15.81
2018-06-29T04:20:36.613Z,15.78
2018-06-29T04:21:36.613Z,15.73
2018-06-29T04:22:36.645Z,15.72
2018-06-29T04:23:36.786Z,15.78
2018-06-29T04:24:36.670Z,15.69
2018-06-29T04:25:36.684Z,15.70
2018-06-29T04:26:36.685Z,15.72
2018-06-29T04:27:36.685Z,15.72
2018-06-29T04:28:36.860Z,15.70
2018-06-29T04:29:36.737Z,15.65
2018-06-29T04:30:36.733Z,15.72
2018-06-29T04:31:36.751Z,15.66
2018-06-29T04:32:36.750Z,15.60
2018-06-29T04:33:36.877Z,15.73
2018-06-29T04:34:36.775Z,15.72
2018-06-29T04:35:36.801Z,15.65
2018-06-29T04:36:36.820Z,15.73
2018-06-29T04:37:36.817Z,15.76
2018-06-29T04:38:36.846Z,15.78
2018-06-29T04:39:36.966Z,15.78
2018-06-29T04:40:36.856Z,15.78
2018-06-29T04:41:36.883Z,15.76
2018-06-29T04:42:36.875Z,15.84
2018-06-29T04:43:36.949Z,15.80
2018-06-29T04:44:37.019Z,15.81
2018-06-29T04:45:36.923Z,15.62
2018-06-29T04:46:36.934Z,15.67
2018-06-29T04:47:36.943Z,15.67
2018-06-29T04:48:36.962Z,15.66
2018-06-29T04:49:37.011Z,15.73
2018-06-29T04:50:36.988Z,15.66
2018-06-29T04:51:37.147Z,15.60
2018-06-29T04:52:37.058Z,15.67
2018-06-29T04:53:37.042Z,15.63
2018-06-29T04:54:37.155Z,15.70
2018-06-29T04:55:37.052Z,15.65
2018-06-29T04:56:37.159Z,15.69
2018-06-29T04:57:37.078Z,15.76
2018-06-29T04:58:37.083Z,15.66
2018-06-29T04:59:37.102Z,15.78
2018-06-29T05:00:37.111Z,15.73
2018-06-29T05:01:37.116Z,15.72
2018-06-29T05:02:37.271Z,15.81
2018-06-29T05:03:37.156Z,15.81
2018-06-29T05:04:37.163Z,15.88
2018-06-29T05:05:37.185Z,15.99
2018-06-29T05:06:37.179Z,16.05
2018-06-29T05:07:37.294Z,16.12
2018-06-29T05:08:37.213Z,16.10
2018-06-29T05:09:37.220Z,16.18
2018-06-29T05:10:37.245Z,16.09
2018-06-29T05:11:37.234Z,16.09
2018-06-29T05:12:37.373Z,16.13
2018-06-29T05:13:37.273Z,16.21
2018-06-29T05:14:37.289Z,16.29
2018-06-29T05:15:37.297Z,16.31
2018-06-29T05:16:37.314Z,16.21
2018-06-29T05:17:37.361Z,16.31
2018-06-29T05:18:37.336Z,16.34
2018-06-29T05:19:37.353Z,16.39
2018-06-29T05:20:37.452Z,16.36
2018-06-29T05:21:37.381Z,16.40
2018-06-29T05:22:37.400Z,16.40
2018-06-29T05:23:37.408Z,16.40
2018-06-29T05:24:37.404Z,16.49
2018-06-29T05:25:37.585Z,16.43
2018-06-29T05:26:37.423Z,16.49
2018-06-29T05:27:37.462Z,16.40
2018-06-29T05:28:37.473Z,16.43
2018-06-29T05:29:37.478Z,16.51
2018-06-29T05:30:37.651Z,16.54
2018-06-29T05:31:37.502Z,16.51
2018-06-29T05:32:37.529Z,16.51
2018-06-29T05:33:37.516Z,16.58
2018-06-29T05:34:37.534Z,16.46
2018-06-29T05:35:37.651Z,16.46
2018-06-29T05:36:37.561Z,16.47
2018-06-29T05:37:37.578Z,16.40
2018-06-29T05:38:37.597Z,16.40
2018-06-29T05:39:37.595Z,16.46
2018-06-29T05:40:37.706Z,16.36
2018-06-29T05:41:37.639Z,16.34
2018-06-29T05:42:37.656Z,16.36
2018-06-29T05:43:37.637Z,16.26
2018-06-29T05:44:37.662Z,16.32
2018-06-29T05:45:37.770Z,16.26
2018-06-29T05:46:37.709Z,16.29
2018-06-29T05:47:37.714Z,16.36
2018-06-29T05:48:37.726Z,16.37
2018-06-29T05:49:37.726Z,16.36
2018-06-29T05:50:37.740Z,16.36
2018-06-29T05:51:37.858Z,16.41
2018-06-29T05:52:37.755Z,16.43
2018-06-29T05:53:37.773Z,16.41
2018-06-29T05:54:37.807Z,16.41
2018-06-29T05:55:37.818Z,16.41
2018-06-29T05:56:37.919Z,16.43
2018-06-29T05:57:37.839Z,16.46
2018-06-29T05:58:37.854Z,16.41
2018-06-29T05:59:37.865Z,16.41
2018-06-29T06:00:37.864Z,16.39
2018-06-29T06:01:37.943Z,16.31
2018-06-29T06:02:37.887Z,16.29
2018-06-29T06:03:37.905Z,16.32
2018-06-29T06:04:38.022Z,16.32
2018-06-29T06:05:37.944Z,16.32
2018-06-29T06:06:37.965Z,16.18
2018-06-29T06:07:37.958Z,16.21
2018-06-29T06:08:37.959Z,16.09
2018-06-29T06:09:38.076Z,16.09
2018-06-29T06:10:38.010Z,16.09
2018-06-29T06:11:38.050Z,16.08
2018-06-29T06:12:38.011Z,16.06
2018-06-29T06:13:38.021Z,16.13
2018-06-29T06:14:38.192Z,16.12
2018-06-29T06:15:38.052Z,16.10
2018-06-29T06:16:38.071Z,16.12
2018-06-29T06:17:38.138Z,16.10
2018-06-29T06:18:38.105Z,16.10
2018-06-29T06:19:38.116Z,16.12
2018-06-29T06:20:38.231Z,16.10
2018-06-29T06:21:38.130Z,16.09
2018-06-29T06:22:38.138Z,16.09
2018-06-29T06:23:38.167Z,16.02
2018-06-29T06:24:38.216Z,15.99
2018-06-29T06:25:38.250Z,16.05
2018-06-29T06:26:38.304Z,15.94
2018-06-29T06:27:38.218Z,15.87
2018-06-29T06:28:38.234Z,16.03
2018-06-29T06:29:38.285Z,16.00
2018-06-29T06:30:38.235Z,15.90
2018-06-29T06:31:38.351Z,15.80
2018-06-29T06:32:38.265Z,15.83
2018-06-29T06:33:38.290Z,15.83
2018-06-29T06:34:38.308Z,15.83
2018-06-29T06:35:38.313Z,15.83
2018-06-29T06:36:38.368Z,15.88
2018-06-29T06:37:38.330Z,15.78
2018-06-29T06:38:38.353Z,15.80
2018-06-29T06:39:38.410Z,15.73
2018-06-29T06:40:38.389Z,15.83
2018-06-29T06:41:38.444Z,15.84
2018-06-29T06:42:38.414Z,15.84
2018-06-29T06:43:38.427Z,15.80
2018-06-29T06:44:38.435Z,15.76
2018-06-29T06:45:38.582Z,15.80
2018-06-29T06:46:38.450Z,15.76
2018-06-29T06:47:38.453Z,15.81
2018-06-29T06:48:38.478Z,15.76
2018-06-29T06:49:38.477Z,15.65
2018-06-29T06:50:38.590Z,15.66
2018-06-29T06:51:38.513Z,15.65
2018-06-29T06:52:38.536Z,15.65
2018-06-29T06:53:38.608Z,15.63
2018-06-29T06:54:38.566Z,15.62
2018-06-29T06:55:38.677Z,15.62
2018-06-29T06:56:38.563Z,15.57
2018-06-29T06:57:38.604Z,15.52
2018-06-29T06:58:38.609Z,15.51
2018-06-29T06:59:38.606Z,15.51
2018-06-29T07:00:38.615Z,15.48
2018-06-29T07:01:38.738Z,15.47
2018-06-29T07:02:38.640Z,15.43
2018-06-29T07:03:38.708Z,15.39
2018-06-29T07:04:38.737Z,15.36
2018-06-29T07:05:38.702Z,15.39
2018-06-29T07:06:38.814Z,15.30
2018-06-29T07:07:38.712Z,15.44
2018-06-29T07:08:38.737Z,15.41
2018-06-29T07:09:38.755Z,15.39
2018-06-29T07:10:38.758Z,15.25
2018-06-29T07:11:38.801Z,15.29
2018-06-29T07:12:38.765Z,15.36
2018-06-29T07:13:38.787Z,15.32
2018-06-29T07:14:38.798Z,15.32
2018-06-29T07:15:38.928Z,15.35
2018-06-29T07:16:38.817Z,15.39
2018-06-29T07:17:38.829Z,15.35
2018-06-29T07:18:38.855Z,15.37
2018-06-29T07:19:38.914Z,15.36
2018-06-29T07:20:38.988Z,15.39
2018-06-29T07:21:38.929Z,15.27
2018-06-29T07:22:38.910Z,15.32
2018-06-29T07:23:38.925Z,15.27
2018-06-29T07:24:38.943Z,15.26
2018-06-29T07:25:39.053Z,15.11
2018-06-29T07:26:38.993Z,15.19
2018-06-29T07:27:38.954Z,15.14
2018-06-29T07:28:38.959Z,15.17
2018-06-29T07:29:38.985Z,15.15
2018-06-29T07:30:39.009Z,15.15
2018-06-29T07:31:39.116Z,15.19
2018-06-29T07:32:39.035Z,15.22
2018-06-29T07:33:39.043Z,15.15
2018-06-29T07:34:39.032Z,15.12
2018-06-29T07:35:39.066Z,15.12
2018-06-29T07:36:39.166Z,15.19
2018-06-29T07:37:39.088Z,15.07
2018-06-29T07:38:39.099Z,15.12
2018-06-29T07:39:39.106Z,15.02
2018-06-29T07:40:39.124Z,14.99
2018-06-29T07:41:39.181Z,15.04
2018-06-29T07:42:39.144Z,15.02
2018-06-29T07:43:39.154Z,14.99
2018-06-29T07:44:39.224Z,14.99
2018-06-29T07:45:39.163Z,14.99
2018-06-29T07:46:39.237Z,15.00
2018-06-29T07:47:39.213Z,14.96
2018-06-29T07:48:39.212Z,15.00
2018-06-29T07:49:39.344Z,14.94
2018-06-29T07:50:39.250Z,15.02
2018-06-29T07:51:39.241Z,14.96
2018-06-29T07:52:39.253Z,15.02
2018-06-29T07:53:39.269Z,14.96
2018-06-29T07:54:39.273Z,14.94
2018-06-29T07:55:39.393Z,14.93
2018-06-29T07:56:39.302Z,14.99
2018-06-29T07:57:39.309Z,14.89
2018-06-29T07:58:39.461Z,14.87
2018-06-29T07:59:39.361Z,14.81
2018-06-29T08:00:39.450Z,14.89
2018-06-29T08:01:39.362Z,14.87
2018-06-29T08:02:39.446Z,14.89
2018-06-29T08:03:39.380Z,14.90
2018-06-29T08:04:39.419Z,14.82
2018-06-29T08:05:39.520Z,14.71
2018-06-29T08:06:39.430Z,14.74
2018-06-29T08:07:39.486Z,14.73
2018-06-29T08:08:39.465Z,14.66
2018-06-29T08:09:39.451Z,14.68
2018-06-29T08:10:39.632Z,14.59
2018-06-29T08:11:39.501Z,14.59
2018-06-29T08:12:39.499Z,14.55
2018-06-29T08:13:39.530Z,14.53
2018-06-29T08:14:39.538Z,14.49
2018-06-29T08:15:39.572Z,14.58
2018-06-29T08:16:39.556Z,14.61
2018-06-29T08:17:39.561Z,14.62
2018-06-29T08:18:39.566Z,14.63
2018-06-29T08:19:39.694Z,14.68
2018-06-29T08:20:39.602Z,14.62
2018-06-29T08:21:39.607Z,14.62
2018-06-29T08:22:39.632Z,14.66
2018-06-29T08:23:39.646Z,14.67
2018-06-29T08:24:39.749Z,14.73
2018-06-29T08:25:39.642Z,14.66
2018-06-29T08:26:39.679Z,14.73
2018-06-29T08:27:39.686Z,14.74
2018-06-29T08:28:39.700Z,14.70
2018-06-29T08:29:39.800Z,14.79
2018-06-29T08:30:39.699Z,14.73
2018-06-29T08:31:39.732Z,14.77
2018-06-29T08:32:39.736Z,14.70
2018-06-29T08:33:39.741Z,14.71
2018-06-29T08:34:39.849Z,14.71
2018-06-29T08:35:39.760Z,14.66
2018-06-29T08:36:39.790Z,14.63
2018-06-29T08:37:39.795Z,14.67
2018-06-29T08:38:39.890Z,14.59
2018-06-29T08:39:39.931Z,14.63
2018-06-29T08:40:39.827Z,14.48
2018-06-29T08:41:39.847Z,14.51
2018-06-29T08:42:39.863Z,14.56
2018-06-29T08:43:39.891Z,14.48
2018-06-29T08:44:39.877Z,14.48
2018-06-29T08:45:40.045Z,14.53
2018-06-29T08:46:39.977Z,14.53
2018-06-29T08:47:39.916Z,14.41
2018-06-29T08:48:39.925Z,14.45
2018-06-29T08:49:40.046Z,14.48
2018-06-29T08:50:40.042Z,14.43
2018-06-29T08:51:39.970Z,14.44
2018-06-29T08:52:39.974Z,14.38
2018-06-29T08:53:39.992Z,14.34
2018-06-29T08:54:40.001Z,14.34
2018-06-29T08:55:40.101Z,14.25
2018-06-29T08:56:40.033Z,14.20
2018-06-29T08:57:40.073Z,14.26
2018-06-29T08:58:40.085Z,14.23
2018-06-29T08:59:40.066Z,14.12
2018-06-29T09:00:40.187Z,14.13
2018-06-29T09:01:40.093Z,14.26
2018-06-29T09:02:40.137Z,14.19
2018-06-29T09:03:40.100Z,14.23
2018-06-29T09:04:40.106Z,14.28
2018-06-29T09:05:40.226Z,14.23
2018-06-29T09:06:40.130Z,14.23
2018-06-29T09:07:40.138Z,14.25
2018-06-29T09:08:40.146Z,14.23
2018-06-29T09:09:40.214Z,14.37
2018-06-29T09:10:40.218Z,14.41
2018-06-29T09:11:40.282Z,14.51
2018-06-29T09:12:40.209Z,14.56
2018-06-29T09:13:40.218Z,14.56
2018-06-29T09:14:40.218Z,14.55
2018-06-29T09:15:40.254Z,14.61
2018-06-29T09:16:40.346Z,14.61
2018-06-29T09:17:40.291Z,14.48
2018-06-29T09:18:40.275Z,14.45
2018-06-29T09:19:40.275Z,14.48
2018-06-29T09:20:40.318Z,14.44
2018-06-29T09:21:40.421Z,14.43
2018-06-29T09:22:40.335Z,14.40
2018-06-29T09:23:40.343Z,14.41
2018-06-29T09:24:40.355Z,14.26
2018-06-29T09:25:40.479Z,14.26
2018-06-29T09:26:40.455Z,14.37
2018-06-29T09:27:40.388Z,14.34
2018-06-29T09:28:40.380Z,14.28
2018-06-29T09:29:40.420Z,14.26
2018-06-29T09:30:40.417Z,14.23
2018-06-29T09:31:40.483Z,14.16
2018-06-29T09:32:40.530Z,14.16
2018-06-29T09:33:40.456Z,14.20
2018-06-29T09:34:40.451Z,14.13
2018-06-29T09:35:40.460Z,14.22
2018-06-29T09:36:40.508Z,14.20
2018-06-29T09:37:40.614Z,14.23
2018-06-29T09:38:40.513Z,14.30
2018-06-29T09:39:40.508Z,14.37
2018-06-29T09:40:40.550Z,14.41
2018-06-29T09:41:40.539Z,14.43
2018-06-29T09:42:40.656Z,14.51
2018-06-29T09:43:40.614Z,14.48
2018-06-29T09:44:40.584Z,14.56
2018-06-29T09:45:40.600Z,14.61
2018-06-29T09:46:40.614Z,14.63
2018-06-29T09:47:40.727Z,14.62
2018-06-29T09:48:40.630Z,14.62
2018-06-29T09:49:40.656Z,14.62
2018-06-29T09:50:40.695Z,14.63
2018-06-29T09:51:40.666Z,14.62
2018-06-29T09:52:40.710Z,14.62
2018-06-29T09:53:40.777Z,14.61
2018-06-29T09:54:40.689Z,14.51
2018-06-29T09:55:40.705Z,14.53
2018-06-29T09:56:40.706Z,14.43
2018-06-29T09:57:40.726Z,14.45
2018-06-29T09:58:40.749Z,14.40
2018-06-29T09:59:40.866Z,14.26
2018-06-29T10:00:40.846Z,14.28
2018-06-29T10:01:40.789Z,14.34
2018-06-29T10:02:40.787Z,14.26
2018-06-29T10:03:40.841Z,14.34
2018-06-29T10:04:40.873Z,14.40
2018-06-29T10:05:40.832Z,14.36
2018-06-29T10:06:40.877Z,14.40
2018-06-29T10:07:41.003Z,14.38
2018-06-29T10:09:40.859Z,14.40
2018-06-29T10:10:40.880Z,14.43
2018-06-29T10:11:40.895Z,14.45
2018-06-29T10:12:41.063Z,14.49
2018-06-29T10:13:40.918Z,14.56
2018-06-29T10:14:40.930Z,14.68
2018-06-29T10:15:40.955Z,14.85
2018-06-29T10:16:40.965Z,14.94
2018-06-29T10:17:41.113Z,15.08
2018-06-29T10:18:40.991Z,15.19
2018-06-29T10:19:41.111Z,15.37
2018-06-29T10:20:41.054Z,15.47
2018-06-29T10:21:41.033Z,15.62
2018-06-29T10:22:41.175Z,15.67
2018-06-29T10:23:41.025Z,15.80
2018-06-29T10:24:41.053Z,16.02
2018-06-29T10:25:41.059Z,16.10
2018-06-29T10:26:41.074Z,16.32
2018-06-29T10:27:41.125Z,16.41
2018-06-29T10:28:41.106Z,16.57
2018-06-29T10:29:41.128Z,16.76
2018-06-29T10:30:41.140Z,16.89
2018-06-29T10:31:41.244Z,17.01
2018-06-29T10:32:41.161Z,17.24
2018-06-29T10:33:41.181Z,17.35
2018-06-29T10:34:41.170Z,17.63
2018-06-29T10:35:41.239Z,17.75
2018-06-29T10:36:41.438Z,17.87
2018-06-29T10:37:41.232Z,18.03
2018-06-29T10:38:41.246Z,18.28
2018-06-29T10:39:41.253Z,18.57
2018-06-29T10:40:41.266Z,18.78
2018-06-29T10:41:41.477Z,18.91
2018-06-29T10:42:41.314Z,19.12
2018-06-29T10:43:41.303Z,19.27
2018-06-29T10:44:41.406Z,19.56
2018-06-29T10:45:41.341Z,19.75
2018-06-29T10:46:41.450Z,19.94
2018-06-29T10:47:41.372Z,20.14
2018-06-29T10:48:41.375Z,20.46
2018-06-29T10:49:41.387Z,20.66
2018-06-29T10:50:41.420Z,20.77
2018-06-29T10:51:41.569Z,21.04
2018-06-29T10:52:41.473Z,21.33
2018-06-29T10:53:41.468Z,21.44
2018-06-29T10:54:41.478Z,21.60
2018-06-29T10:55:41.510Z,21.75
2018-06-29T10:56:41.658Z,21.97
2018-06-29T10:57:41.514Z,22.19
2018-06-29T10:58:41.559Z,22.37
2018-06-29T10:59:41.584Z,22.44
2018-06-29T11:00:41.585Z,22.68
2018-06-29T11:01:41.744Z,22.80
2018-06-29T11:02:41.604Z,22.92
2018-06-29T11:03:41.635Z,23.10
2018-06-29T11:04:41.655Z,23.25
2018-06-29T11:05:41.677Z,23.42
2018-06-29T11:06:41.726Z,23.58
2018-06-29T11:07:41.735Z,23.58
2018-06-29T11:08:41.905Z,23.77
2018-06-29T11:09:41.738Z,24.07
2018-06-29T11:10:41.796Z,24.18
2018-06-29T11:11:41.758Z,24.28
2018-06-29T11:12:41.788Z,24.36
2018-06-29T11:13:41.958Z,24.48
2018-06-29T11:14:41.814Z,24.59
2018-06-29T11:15:41.837Z,24.79
2018-06-29T11:16:41.842Z,24.86
2018-06-29T11:17:41.865Z,25.00
2018-06-29T11:18:42.028Z,25.19
2018-06-29T11:19:41.931Z,25.26
2018-06-29T11:20:41.948Z,25.39
2018-06-29T11:21:41.957Z,25.44
2018-06-29T11:22:42.191Z,25.44
2018-06-29T11:23:42.151Z,25.40
2018-06-29T11:24:42.017Z,25.59
2018-06-29T11:25:42.040Z,25.61
2018-06-29T11:26:42.060Z,25.63
2018-06-29T11:27:42.089Z,25.66
2018-06-29T11:28:42.232Z,25.66
2018-06-29T11:29:42.114Z,25.77
2018-06-29T11:30:42.115Z,25.77
2018-06-29T11:31:42.120Z,25.85
2018-06-29T11:32:42.140Z,26.01
2018-06-29T11:33:42.341Z,26.06
2018-06-29T11:34:42.204Z,26.08
2018-06-29T11:35:42.227Z,26.10
2018-06-29T11:36:42.296Z,26.08
2018-06-29T11:37:42.289Z,26.15
2018-06-29T11:38:42.327Z,26.23
2018-06-29T11:39:42.308Z,26.36
2018-06-29T11:40:42.305Z,26.37
2018-06-29T11:41:42.478Z,26.55
2018-06-29T11:42:42.347Z,26.67
2018-06-29T11:43:42.366Z,26.89
2018-06-29T11:44:42.394Z,27.04
2018-06-29T11:45:42.397Z,27.25
2018-06-29T11:46:42.608Z,27.47
2018-06-29T11:47:42.430Z,27.53
2018-06-29T11:48:42.523Z,27.57
2018-06-29T11:49:42.474Z,27.66
2018-06-29T11:50:42.521Z,27.82
2018-06-29T11:51:42.653Z,27.90
2018-06-29T11:52:42.527Z,28.00
2018-06-29T11:53:42.589Z,28.08
2018-06-29T11:54:42.567Z,28.00
2018-06-29T11:55:42.592Z,28.06
2018-06-29T11:56:42.756Z,28.30
2018-06-29T11:58:42.638Z,28.47
2018-06-29T11:59:42.683Z,28.57
2018-06-29T12:00:42.723Z,28.80
2018-06-29T12:01:42.861Z,28.92
2018-06-29T12:02:42.718Z,29.03
2018-06-29T12:03:42.762Z,29.27
2018-06-29T12:04:42.894Z,29.42
2018-06-29T12:05:42.779Z,29.50
2018-06-29T12:06:42.818Z,29.62
2018-06-29T12:07:42.983Z,29.69
2018-06-29T12:08:42.863Z,29.62
2018-06-29T12:09:42.874Z,29.64
2018-06-29T12:10:42.901Z,29.59
2018-06-29T12:11:42.919Z,29.52
2018-06-29T12:12:42.930Z,29.32
2018-06-29T12:13:43.114Z,29.16
2018-06-29T12:14:42.976Z,29.05
2018-06-29T12:15:42.996Z,28.97
2018-06-29T12:16:43.058Z,29.03
2018-06-29T12:17:43.079Z,28.93
2018-06-29T12:18:43.270Z,28.94
2018-06-29T12:19:43.081Z,28.93
2018-06-29T12:20:43.106Z,28.83
2018-06-29T12:21:43.133Z,28.72
2018-06-29T12:22:43.141Z,28.57
2018-06-29T12:23:43.318Z,28.50
2018-06-29T12:24:43.190Z,28.38
2018-06-29T12:25:43.210Z,28.13
2018-06-29T12:26:43.262Z,27.97
2018-06-29T12:27:43.251Z,27.79
2018-06-29T12:28:43.422Z,27.61
2018-06-29T12:29:43.274Z,27.37
2018-06-29T12:30:43.302Z,27.29
2018-06-29T12:31:43.315Z,27.05
2018-06-29T12:32:43.345Z,26.91
2018-06-29T12:33:43.467Z,26.89
2018-06-29T12:34:43.396Z,26.67
2018-06-29T12:35:43.398Z,26.46
2018-06-29T12:36:43.429Z,26.34
2018-06-29T12:37:43.445Z,26.33
2018-06-29T12:38:43.567Z,26.13
2018-06-29T12:39:43.493Z,26.10
2018-06-29T12:40:43.509Z,26.11
2018-06-29T12:41:43.532Z,25.92
2018-06-29T12:42:43.586Z,25.80
2018-06-29T12:43:43.714Z,25.71
2018-06-29T12:44:43.590Z,25.62
2018-06-29T12:45:43.611Z,25.37
2018-06-29T12:46:43.624Z,25.30
2018-06-29T12:47:43.644Z,25.12
2018-06-29T12:48:43.699Z,24.94
2018-06-29T12:49:43.785Z,24.77
2018-06-29T12:50:43.689Z,24.66
2018-06-29T12:51:43.712Z,24.48
2018-06-29T12:52:43.734Z,24.41
2018-06-29T12:53:43.748Z,24.43
2018-06-29T12:54:43.869Z,24.31